createdAt,value
2018-04-11T00:02:24.647Z,20.20
2018-04-11T00:04:52.082Z,19.93
2018-04-11T00:07:20.334Z,20.33
2018-04-11T00:09:47.757Z,18.73
2018-04-11T00:12:15.224Z,19.97
2018-04-11T00:14:43.428Z,19.77
2018-04-11T00:17:10.864Z,24.33
2018-04-11T00:19:38.308Z,26.63
2018-04-11T00:22:05.744Z,29.07
2018-04-11T00:24:33.186Z,31.07
2018-04-11T00:27:01.397Z,33.13
2018-04-11T00:29:28.829Z,33.83
2018-04-11T00:31:56.266Z,36.43
2018-04-11T00:34:23.701Z,35.80
2018-04-11T00:36:51.912Z,36.97
2018-04-11T00:39:19.352Z,37.50
2018-04-11T00:41:46.771Z,37.50
2018-04-11T00:44:14.213Z,37.23
2018-04-11T00:46:41.652Z,37.80
2018-04-11T00:49:09.853Z,38.40
2018-04-11T00:51:37.286Z,36.83
2018-04-11T00:54:04.727Z,36.67
2018-04-11T00:56:32.174Z,36.53
2018-04-11T00:58:59.612Z,38.07
2018-04-11T01:01:27.051Z,37.57
2018-04-11T01:03:55.252Z,37.13
2018-04-11T01:06:22.685Z,36.00
2018-04-11T01:08:50.896Z,37.07
2018-04-11T01:11:18.330Z,38.40
2018-04-11T01:13:45.766Z,37.37
2018-04-11T01:16:13.988Z,37.20
2018-04-11T01:18:41.437Z,36.23
2018-04-11T01:21:08.917Z,39.50
2018-04-11T01:23:36.354Z,37.90
2018-04-11T01:26:04.356Z,37.73
2018-04-11T01:28:31.787Z,38.47
2018-04-11T01:30:59.235Z,36.63
2018-04-11T01:33:26.676Z,38.10
2018-04-11T01:35:54.110Z,37.60
2018-04-11T01:38:21.564Z,38.00
2018-04-11T01:40:49.751Z,37.93
2018-04-11T01:43:17.209Z,38.27
2018-04-11T01:45:44.630Z,38.17
2018-04-11T01:48:12.882Z,38.67
2018-04-11T01:50:40.303Z,38.30
2018-04-11T01:53:07.733Z,39.23
2018-04-11T01:55:35.176Z,38.20
2018-04-11T01:58:03.384Z,38.27
2018-04-11T02:00:30.833Z,38.40
2018-04-11T02:02:58.285Z,39.07
2018-04-11T02:05:25.721Z,38.70
2018-04-11T02:07:53.170Z,39.10
2018-04-11T02:10:21.374Z,39.27
2018-04-11T02:12:48.832Z,39.53
2018-04-11T02:15:16.256Z,38.90
2018-04-11T02:17:44.487Z,38.60
2018-04-11T02:20:11.914Z,40.27
2018-04-11T02:22:39.354Z,40.73
2018-04-11T02:25:06.807Z,38.80
2018-04-11T02:27:34.244Z,39.40
2018-04-11T02:30:02.465Z,39.33
2018-04-11T02:32:29.909Z,38.70
2018-04-11T02:34:57.357Z,37.90
2018-04-11T02:37:24.784Z,37.97
2018-04-11T02:39:52.993Z,38.70
2018-04-11T02:42:20.432Z,37.00
2018-04-11T02:44:47.936Z,37.93
2018-04-11T02:47:16.077Z,37.07
2018-04-11T02:49:43.528Z,37.90
2018-04-11T02:52:10.960Z,35.23
2018-04-11T02:54:39.169Z,36.00
2018-04-11T02:57:06.592Z,36.73
2018-04-11T02:59:34.808Z,37.57
2018-04-11T03:02:02.244Z,37.80
2018-04-11T03:04:29.689Z,36.37
2018-04-11T03:06:57.139Z,36.17
2018-04-11T03:09:25.401Z,37.83
2018-04-11T03:11:52.810Z,37.17
2018-04-11T03:14:20.248Z,36.97
2018-04-11T03:16:47.945Z,36.30
2018-04-11T03:19:15.384Z,36.67
2018-04-11T03:21:42.817Z,36.27
2018-04-11T03:24:10.260Z,34.90
2018-04-11T03:26:37.702Z,35.17
2018-04-11T03:29:05.912Z,34.77
2018-04-11T03:31:33.344Z,34.57
2018-04-11T03:34:00.777Z,34.67
2018-04-11T03:36:28.981Z,35.87
2018-04-11T03:38:56.408Z,35.27
2018-04-11T03:41:24.613Z,37.73
2018-04-11T03:43:52.068Z,36.10
2018-04-11T03:46:19.485Z,36.20
2018-04-11T03:48:47.701Z,36.73
2018-04-11T03:51:15.128Z,35.87
2018-04-11T03:53:43.338Z,35.67
2018-04-11T03:56:10.772Z,34.93
2018-04-11T03:58:38.196Z,36.60
2018-04-11T04:01:06.412Z,34.23
2018-04-11T04:03:33.921Z,33.60
2018-04-11T04:06:01.373Z,33.73
2018-04-11T04:08:28.792Z,34.07
2018-04-11T04:10:56.230Z,32.90
2018-04-11T04:13:35.442Z,32.27
2018-04-11T04:16:15.500Z,34.40
2018-04-11T04:18:55.014Z,30.13
2018-04-11T04:21:23.212Z,29.93
2018-04-11T04:23:50.656Z,30.63
2018-04-11T04:26:18.854Z,30.43
2018-04-11T04:28:46.291Z,29.70
2018-04-11T04:31:15.100Z,28.87
2018-04-11T04:33:42.525Z,30.43
2018-04-11T04:36:10.733Z,28.73
2018-04-11T04:38:38.168Z,29.10
2018-04-11T04:41:05.601Z,30.63
2018-04-11T04:43:33.876Z,29.67
2018-04-11T04:46:01.304Z,29.57
2018-04-11T04:48:29.909Z,29.07
2018-04-11T04:50:57.347Z,29.37
2018-04-11T04:53:24.786Z,29.47
2018-04-11T04:55:52.231Z,29.43
2018-04-11T04:58:19.656Z,29.07
2018-04-11T05:00:47.086Z,28.27
2018-04-11T05:03:15.277Z,29.73
2018-04-11T05:05:42.740Z,30.07
2018-04-11T05:08:10.185Z,29.33
2018-04-11T05:10:39.097Z,28.63
2018-04-11T05:13:06.512Z,28.73
2018-04-11T05:15:34.724Z,28.00
2018-04-11T05:18:02.163Z,27.73
2018-04-11T05:20:30.356Z,27.50
2018-04-11T05:22:57.804Z,27.07
2018-04-11T05:25:25.250Z,27.63
2018-04-11T05:27:52.690Z,27.50
2018-04-11T05:30:20.120Z,28.63
2018-04-11T05:32:47.610Z,27.63
2018-04-11T05:35:15.804Z,28.13
2018-04-11T05:37:43.238Z,27.53
2018-04-11T05:40:11.441Z,27.90
2018-04-11T05:42:38.881Z,26.03
2018-04-11T05:45:06.325Z,26.17
2018-04-11T05:47:34.532Z,26.30
2018-04-11T05:50:01.991Z,26.23
2018-04-11T05:52:29.433Z,25.60
2018-04-11T05:54:56.887Z,24.90
2018-04-11T05:57:24.332Z,25.90
2018-04-11T05:59:51.773Z,25.17
2018-04-11T06:02:19.977Z,23.80
2018-04-11T06:04:47.417Z,24.63
2018-04-11T06:07:14.852Z,24.67
2018-04-11T06:09:43.046Z,25.10
2018-04-11T06:12:10.484Z,25.47
2018-04-11T06:14:38.703Z,25.43
2018-04-11T06:17:06.139Z,25.50
2018-04-11T06:19:33.568Z,25.07
2018-04-11T06:22:01.777Z,24.60
2018-04-11T06:24:29.222Z,25.50
2018-04-11T06:26:56.660Z,24.30
2018-04-11T06:29:24.095Z,23.90
2018-04-11T06:31:51.533Z,24.90
2018-04-11T06:34:19.001Z,24.87
2018-04-11T06:36:46.444Z,24.70
2018-04-11T06:39:13.876Z,25.13
2018-04-11T06:41:41.322Z,24.10
2018-04-11T06:44:08.760Z,25.43
2018-04-11T06:46:36.884Z,25.43
2018-04-11T06:49:04.316Z,25.77
2018-04-11T06:51:31.771Z,24.33
2018-04-11T06:53:59.209Z,23.93
2018-04-11T06:56:26.644Z,24.07
2018-04-11T06:58:54.089Z,23.37
2018-04-11T07:01:22.276Z,24.47
2018-04-11T07:03:49.720Z,24.30
2018-04-11T07:06:17.932Z,24.13
2018-04-11T07:08:45.376Z,24.97
2018-04-11T07:11:12.816Z,24.17
2018-04-11T07:13:40.249Z,23.67
2018-04-11T07:16:08.451Z,27.10
2018-04-11T07:18:35.887Z,24.13
2018-04-11T07:21:04.096Z,23.60
2018-04-11T07:23:31.523Z,23.90
2018-04-11T07:25:58.982Z,24.07
2018-04-11T07:28:27.177Z,22.93
2018-04-11T07:30:54.617Z,23.00
2018-04-11T07:33:22.065Z,24.03
2018-04-11T07:35:50.269Z,22.83
2018-04-11T07:38:17.709Z,25.43
2018-04-11T07:40:45.133Z,24.57
2018-04-11T07:43:13.341Z,23.23
2018-04-11T07:45:40.775Z,24.17
2018-04-11T07:48:08.233Z,22.83
2018-04-11T07:50:35.664Z,23.23
2018-04-11T07:53:03.115Z,21.10
2018-04-11T07:55:30.550Z,23.53
2018-04-11T07:57:57.993Z,22.57
2018-04-11T08:00:25.433Z,24.47
2018-04-11T08:02:52.897Z,23.40
2018-04-11T08:05:20.314Z,23.90
2018-04-11T08:07:48.517Z,23.07
2018-04-11T08:10:15.951Z,23.07
2018-04-11T08:12:43.392Z,21.83
2018-04-11T08:15:11.594Z,22.43
2018-04-11T08:17:39.040Z,22.93
2018-04-11T08:20:06.477Z,23.77
2018-04-11T08:22:34.701Z,22.50
2018-04-11T08:25:02.142Z,22.30
2018-04-11T08:27:29.582Z,22.40
2018-04-11T08:29:57.043Z,23.27
2018-04-11T08:32:24.515Z,23.13
2018-04-11T08:34:51.949Z,23.37
2018-04-11T08:37:19.394Z,22.87
2018-04-11T08:39:47.648Z,22.47
2018-04-11T08:42:15.089Z,22.17
2018-04-11T08:44:42.520Z,21.03
2018-04-11T08:47:09.965Z,21.97
2018-04-11T08:49:37.408Z,22.00
2018-04-11T08:52:04.848Z,21.60
2018-04-11T08:54:33.137Z,21.33
2018-04-11T08:57:00.576Z,21.57
2018-04-11T08:59:28.781Z,21.87
2018-04-11T09:01:56.232Z,21.13
2018-04-11T09:04:23.709Z,20.57
2018-04-11T09:06:51.144Z,21.30
2018-04-11T09:09:18.583Z,21.70
2018-04-11T09:11:46.029Z,20.80
2018-04-11T09:14:14.241Z,21.17
2018-04-11T09:16:41.689Z,21.73
2018-04-11T09:19:09.139Z,20.37
2018-04-11T09:21:36.572Z,20.73
2018-04-11T09:24:04.025Z,20.93
2018-04-11T09:26:32.232Z,20.97
2018-04-11T09:28:59.680Z,21.17
2018-04-11T09:31:27.113Z,20.93
2018-04-11T09:33:54.563Z,21.83
2018-04-11T09:36:22.773Z,21.27
2018-04-11T09:38:50.214Z,23.17
2018-04-11T09:41:17.643Z,21.70
2018-04-11T09:43:45.866Z,22.47
2018-04-11T09:46:13.303Z,23.03
2018-04-11T09:48:40.754Z,20.97
2018-04-11T09:51:08.186Z,21.87
2018-04-11T09:53:37.324Z,21.37
2018-04-11T09:56:04.762Z,20.63
2018-04-11T09:58:32.215Z,21.53
2018-04-11T10:01:00.401Z,21.70
2018-04-11T10:03:27.837Z,22.40
2018-04-11T10:05:55.285Z,23.00
2018-04-11T10:08:22.728Z,21.63
2018-04-11T10:10:50.937Z,22.70
2018-04-11T10:13:18.387Z,22.40
2018-04-11T10:15:45.822Z,21.63
2018-04-11T10:18:14.040Z,23.93
2018-04-11T10:20:41.491Z,21.60
2018-04-11T10:23:08.949Z,22.60
2018-04-11T10:25:36.391Z,22.27
2018-04-11T10:28:03.850Z,22.33
2018-04-11T10:30:31.272Z,22.47
2018-04-11T10:32:59.480Z,21.57
2018-04-11T10:35:26.916Z,21.53
2018-04-11T10:37:54.894Z,22.40
2018-04-11T10:40:23.136Z,22.50
2018-04-11T10:42:51.342Z,23.00
2018-04-11T10:45:18.784Z,22.63
2018-04-11T10:47:46.212Z,22.87
2018-04-11T10:50:14.416Z,21.83
2018-04-11T10:52:41.864Z,22.27
2018-04-11T10:55:09.308Z,21.30
2018-04-11T10:57:37.521Z,21.67
2018-04-11T11:00:04.956Z,21.80
2018-04-11T11:02:32.395Z,22.60
2018-04-11T11:05:00.604Z,23.57
2018-04-11T11:07:29.128Z,22.90
2018-04-11T11:09:56.590Z,22.73
2018-04-11T11:12:24.021Z,23.37
2018-04-11T11:14:51.464Z,22.83
2018-04-11T11:17:18.922Z,23.00
2018-04-11T11:20:01.133Z,22.60
2018-04-11T11:22:28.583Z,23.07
2018-04-11T11:24:56.038Z,22.53
2018-04-11T11:27:23.477Z,22.47
2018-04-11T11:29:50.935Z,19.70
2018-04-11T11:32:18.410Z,19.27
2018-04-11T11:34:45.862Z,19.43
2018-04-11T11:37:13.304Z,18.57
2018-04-11T11:39:40.753Z,18.57
2018-04-11T11:42:08.211Z,21.73
2018-04-11T11:44:35.670Z,24.67
2018-04-11T11:47:03.117Z,22.80
2018-04-11T11:49:31.235Z,24.40
2018-04-11T11:51:58.721Z,25.43
2018-04-11T11:54:26.927Z,25.90
2018-04-11T11:56:54.361Z,27.13
2018-04-11T11:59:21.811Z,24.23
2018-04-11T12:01:50.030Z,27.20
2018-04-11T12:04:17.477Z,28.10
2018-04-11T12:06:44.912Z,26.87
2018-04-11T12:09:12.369Z,29.33
2018-04-11T12:11:39.941Z,27.50
2018-04-11T12:14:07.393Z,28.13
2018-04-11T12:16:34.848Z,27.37
2018-04-11T12:19:02.500Z,27.07
2018-04-11T12:21:29.954Z,30.90
2018-04-11T12:23:57.416Z,28.83
2018-04-11T12:26:25.292Z,29.20
2018-04-11T12:28:53.795Z,29.60
2018-04-11T12:31:21.221Z,29.73
2018-04-11T12:33:48.681Z,29.53
2018-04-11T12:36:16.113Z,29.87
2018-04-11T12:38:43.580Z,28.87
2018-04-11T12:41:11.023Z,29.70
2018-04-11T12:43:38.451Z,30.00
2018-04-11T12:46:07.096Z,28.53
2018-04-11T12:48:35.197Z,29.00
2018-04-11T12:51:02.651Z,28.73
2018-04-11T12:53:30.078Z,28.13
2018-04-11T12:55:57.524Z,28.70
2018-04-11T12:58:24.969Z,29.10
2018-04-11T13:00:52.413Z,28.60
2018-04-11T13:03:19.849Z,28.40
2018-04-11T13:05:48.079Z,28.77
2018-04-11T13:08:16.273Z,28.50
2018-04-11T13:10:43.715Z,27.20
2018-04-11T13:13:11.155Z,27.27
2018-04-11T13:15:38.608Z,28.60
2018-04-11T13:18:06.059Z,28.93
2018-04-11T13:20:33.502Z,28.67
2018-04-11T13:23:00.945Z,26.93
2018-04-11T13:25:28.376Z,27.53
2018-04-11T13:27:56.689Z,27.50
2018-04-11T13:30:24.112Z,28.63
2018-04-11T13:32:52.304Z,28.83
2018-04-11T13:35:19.746Z,29.60
2018-04-11T13:37:47.952Z,28.87
2018-04-11T13:40:15.395Z,28.63
2018-04-11T13:42:42.833Z,30.30
2018-04-11T13:45:11.041Z,30.33
2018-04-11T13:47:38.476Z,29.77
2018-04-11T13:50:05.917Z,29.53
2018-04-11T13:52:34.525Z,29.80
2018-04-11T13:55:01.980Z,30.83
2018-04-11T13:57:29.413Z,31.90
2018-04-11T13:59:57.621Z,30.43
2018-04-11T14:02:25.122Z,31.90
2018-04-11T14:04:52.552Z,31.90
2018-04-11T14:07:20.018Z,32.43
2018-04-11T14:09:47.449Z,32.10
2018-04-11T14:12:14.893Z,32.33
2018-04-11T14:14:42.332Z,32.40
2018-04-11T14:17:09.784Z,32.80
2018-04-11T14:19:37.256Z,34.83
2018-04-11T14:22:04.724Z,33.13
2018-04-11T14:24:32.170Z,34.10
2018-04-11T14:26:59.612Z,33.63
2018-04-11T14:29:27.066Z,33.47
2018-04-11T14:31:54.517Z,34.23
2018-04-11T14:34:21.950Z,35.23
2018-04-11T14:36:50.166Z,33.93
2018-04-11T14:39:17.607Z,34.33
2018-04-11T14:41:45.082Z,33.63
2018-04-11T14:44:12.521Z,34.50
2018-04-11T14:46:39.964Z,33.53
2018-04-11T14:49:07.418Z,32.67
2018-04-11T14:51:35.625Z,35.77
2018-04-11T14:54:03.072Z,33.47
2018-04-11T14:56:30.526Z,36.67
2018-04-11T14:58:57.969Z,35.87
2018-04-11T15:01:25.404Z,35.80
2018-04-11T15:03:53.608Z,38.07
2018-04-11T15:06:21.040Z,36.53
2018-04-11T15:08:50.166Z,37.30
2018-04-11T15:11:17.598Z,38.57
2018-04-11T15:13:45.029Z,37.87
2018-04-11T15:16:12.472Z,36.60
2018-04-11T15:18:39.905Z,36.70
2018-04-11T15:21:08.115Z,35.50
2018-04-11T15:23:35.548Z,38.03
2018-04-11T15:26:03.009Z,38.17
2018-04-11T15:28:30.449Z,36.90
2018-04-11T15:30:57.926Z,36.90
2018-04-11T15:33:26.113Z,38.43
2018-04-11T15:35:54.328Z,37.80
2018-04-11T15:38:22.276Z,38.90
2018-04-11T15:40:49.721Z,36.37
2018-04-11T15:43:18.418Z,40.20
2018-04-11T15:45:45.848Z,41.07
2018-04-11T15:48:14.050Z,39.57
2018-04-11T15:50:41.506Z,40.70
2018-04-11T15:53:09.690Z,41.63
2018-04-11T15:55:37.128Z,42.37
2018-04-11T15:58:04.599Z,43.77
2018-04-11T16:00:32.042Z,43.23
2018-04-11T16:03:00.241Z,44.70
2018-04-11T16:05:27.682Z,43.97
2018-04-11T16:07:55.119Z,42.93
2018-04-11T16:10:23.313Z,41.93
2018-04-11T16:12:50.776Z,42.80
2018-04-11T16:15:18.225Z,44.37
2018-04-11T16:17:45.664Z,45.87
2018-04-11T16:20:13.100Z,44.40
2018-04-11T16:22:41.313Z,44.07
2018-04-11T16:25:08.774Z,43.87
2018-04-11T16:27:36.208Z,42.63
2018-04-11T16:30:03.640Z,41.10
2018-04-11T16:32:31.846Z,37.83
2018-04-11T16:34:59.292Z,38.50
2018-04-11T16:37:27.493Z,39.47
2018-04-11T16:39:54.934Z,38.37
2018-04-11T16:42:22.388Z,39.20
2018-04-11T16:44:49.825Z,42.13
2018-04-11T16:47:18.039Z,40.83
2018-04-11T16:49:45.460Z,41.07
2018-04-11T16:52:12.964Z,41.33
2018-04-11T16:54:40.396Z,44.20
2018-04-11T16:57:08.783Z,43.17
2018-04-11T16:59:36.221Z,42.53
2018-04-11T17:02:03.652Z,43.57
2018-04-11T17:04:31.894Z,43.20
2018-04-11T17:06:59.337Z,44.33
2018-04-11T17:09:26.820Z,47.23
2018-04-11T17:11:54.293Z,45.97
2018-04-11T17:14:22.490Z,46.50
2018-04-11T17:16:49.947Z,44.50
2018-04-11T17:19:17.363Z,47.77
2018-04-11T17:21:57.309Z,47.93
2018-04-11T17:24:37.409Z,49.10
2018-04-11T17:30:19.268Z,46.63
2018-04-11T17:32:46.713Z,47.80
2018-04-11T17:35:14.149Z,48.73
2018-04-11T17:37:41.592Z,48.50
2018-04-11T17:40:09.026Z,46.70
2018-04-11T17:42:36.461Z,49.23
2018-04-11T17:45:04.668Z,48.37
2018-04-11T17:47:32.124Z,49.33
2018-04-11T17:49:59.550Z,48.77
2018-04-11T17:52:28.684Z,48.80
2018-04-11T17:54:56.132Z,50.20
2018-04-11T17:57:23.607Z,48.57
2018-04-11T17:59:51.050Z,48.43
2018-04-11T18:02:18.463Z,48.27
2018-04-11T18:04:46.675Z,49.60
2018-04-11T18:07:14.111Z,50.63
2018-04-11T18:09:42.535Z,49.40
2018-04-11T18:12:09.960Z,49.57
2018-04-11T18:14:37.401Z,51.97
2018-04-11T18:17:04.836Z,48.63
2018-04-11T18:19:33.057Z,49.10
2018-04-11T18:22:01.468Z,52.23
2018-04-11T18:24:28.892Z,50.23
2018-04-11T18:26:56.346Z,51.13
2018-04-11T18:29:23.787Z,51.37
2018-04-11T18:31:51.220Z,51.17
2018-04-11T18:34:18.735Z,51.73
2018-04-11T18:36:46.167Z,52.03
2018-04-11T18:39:13.608Z,48.47
2018-04-11T18:41:41.041Z,49.20
2018-04-11T18:44:09.259Z,49.73
2018-04-11T18:46:36.694Z,47.30
2018-04-11T18:49:04.138Z,49.50
2018-04-11T18:51:31.583Z,49.83
2018-04-11T18:53:59.783Z,48.57
2018-04-11T18:56:27.250Z,49.30
2018-04-11T18:58:54.682Z,49.40
2018-04-11T19:01:22.110Z,50.57
2018-04-11T19:03:50.325Z,51.53
2018-04-11T19:06:17.906Z,51.53
2018-04-11T19:08:45.366Z,51.50
2018-04-11T19:11:12.792Z,49.50
2018-04-11T19:13:40.257Z,51.93
2018-04-11T19:16:07.717Z,54.77
2018-04-11T19:18:35.149Z,52.33
2018-04-11T19:21:02.584Z,52.90
2018-04-11T19:23:30.793Z,50.83
2018-04-11T19:25:58.241Z,53.40
2018-04-11T19:28:25.700Z,55.00
2018-04-11T19:30:53.129Z,53.90
2018-04-11T19:33:21.332Z,56.83
2018-04-11T19:35:48.761Z,57.20
2018-04-11T19:38:16.205Z,56.23
2018-04-11T19:40:44.424Z,55.47
2018-04-11T19:43:11.864Z,57.67
2018-04-11T19:45:39.300Z,58.57
2018-04-11T19:48:06.756Z,56.90
2018-04-11T19:50:34.212Z,55.80
2018-04-11T19:53:01.661Z,57.10
2018-04-11T19:55:29.872Z,54.57
2018-04-11T19:57:57.309Z,56.53
2018-04-11T20:00:24.761Z,56.30
2018-04-11T20:02:52.229Z,59.27
2018-04-11T20:05:19.670Z,57.77
2018-04-11T20:07:47.127Z,58.30
2018-04-11T20:10:15.317Z,56.03
2018-04-11T20:12:42.769Z,57.33
2018-04-11T20:15:10.225Z,58.47
2018-04-11T20:17:37.668Z,56.03
2018-04-11T20:20:05.131Z,54.20
2018-04-11T20:22:32.569Z,58.63
2018-04-11T20:25:00.792Z,55.83
2018-04-11T20:27:28.240Z,56.57
2018-04-11T20:29:56.197Z,54.57
2018-04-11T20:32:23.639Z,55.43
2018-04-11T20:34:51.068Z,57.23
2018-04-11T20:37:19.284Z,54.20
2018-04-11T20:39:46.734Z,54.27
2018-04-11T20:42:14.160Z,50.90
2018-04-11T20:44:41.617Z,51.27
2018-04-11T20:47:09.829Z,50.00
2018-04-11T20:49:37.533Z,50.07
2018-04-11T20:52:04.968Z,51.00
2018-04-11T20:54:32.404Z,50.20
2018-04-11T20:56:59.852Z,52.33
2018-04-11T20:59:27.288Z,51.97
2018-04-11T21:01:54.722Z,50.27
2018-04-11T21:04:23.868Z,51.53
2018-04-11T21:06:51.284Z,50.40
2018-04-11T21:09:18.737Z,49.50
2018-04-11T21:11:47.685Z,50.03
2018-04-11T21:14:15.145Z,48.70
2018-04-11T21:16:42.609Z,46.97
2018-04-11T21:19:10.059Z,49.40
2018-04-11T21:21:37.482Z,48.20
2018-04-11T21:24:04.927Z,49.50
2018-04-11T21:26:32.372Z,49.03
2018-04-11T21:28:59.806Z,46.77
2018-04-11T21:31:28.010Z,48.10
2018-04-11T21:33:55.448Z,48.03
2018-04-11T21:36:22.889Z,46.73
2018-04-11T21:38:51.084Z,47.60
2018-04-11T21:41:18.555Z,48.20
2018-04-11T21:43:45.971Z,46.60
2018-04-11T21:46:14.192Z,48.40
2018-04-11T21:48:41.621Z,49.33
2018-04-11T21:51:09.068Z,49.57
2018-04-11T21:53:37.258Z,49.03
2018-04-11T21:56:05.526Z,50.57
2018-04-11T21:58:32.965Z,48.63
2018-04-11T22:01:01.177Z,49.53
2018-04-11T22:03:28.627Z,49.23
2018-04-11T22:05:56.080Z,50.07
2018-04-11T22:08:23.522Z,50.30
2018-04-11T22:10:50.966Z,51.37
2018-04-11T22:13:19.169Z,49.93
2018-04-11T22:15:46.608Z,50.57
2018-04-11T22:18:14.057Z,51.27
2018-04-11T22:20:41.517Z,51.03
2018-04-11T22:23:08.951Z,50.30
2018-04-11T22:25:36.377Z,52.70
2018-04-11T22:28:03.816Z,52.80
2018-04-11T22:30:31.252Z,54.33
2018-04-11T22:32:58.724Z,51.50
2018-04-11T22:35:26.156Z,53.83
2018-04-11T22:37:53.629Z,52.53
2018-04-11T22:40:21.076Z,52.77
2018-04-11T22:42:48.516Z,53.13
2018-04-11T22:45:15.960Z,53.77
2018-04-11T22:47:44.158Z,56.37
2018-04-11T22:50:11.607Z,53.27
2018-04-11T22:52:39.050Z,55.80
2018-04-11T22:55:07.261Z,55.50
2018-04-11T22:57:34.717Z,53.63
2018-04-11T23:00:02.168Z,54.97
2018-04-11T23:02:29.637Z,52.30
2018-04-11T23:04:57.083Z,48.13
2018-04-11T23:07:24.533Z,51.37
2018-04-11T23:09:51.981Z,49.33
2018-04-11T23:12:19.478Z,47.73
2018-04-11T23:14:46.904Z,47.67
2018-04-11T23:17:14.349Z,48.50
2018-04-11T23:19:41.781Z,47.70
2018-04-11T23:22:09.995Z,47.80
2018-04-11T23:24:37.421Z,46.53
2018-04-11T23:27:04.872Z,49.40
2018-04-11T23:29:32.308Z,47.13
2018-04-11T23:31:59.741Z,46.70
2018-04-11T23:34:27.193Z,46.93
2018-04-11T23:36:54.627Z,47.27
2018-04-11T23:39:22.077Z,47.50
2018-04-11T23:41:49.547Z,46.77
2018-04-11T23:44:16.984Z,45.80
2018-04-11T23:46:44.437Z,45.00
2018-04-11T23:49:12.615Z,45.07
2018-04-11T23:51:40.868Z,43.57
2018-04-11T23:54:08.320Z,45.30
2018-04-11T23:56:35.753Z,43.53
2018-04-11T23:59:03.964Z,43.83
